createdAt,value
2023-04-18T00:03:25.746Z,11.80
2023-04-18T00:09:13.218Z,10.52
2023-04-18T00:15:06.783Z,10.77
2023-04-18T00:20:57.254Z,10.10
2023-04-18T00:33:11.867Z,11.35
2023-04-18T00:39:02.837Z,11.75
2023-04-18T00:44:49.814Z,11.68
2023-04-18T00:50:40.485Z,12.68
2023-04-18T00:56:30.748Z,11.93
2023-04-18T01:02:19.981Z,11.15
2023-04-18T01:08:07.396Z,11.93
2023-04-18T01:14:03.593Z,11.40
2023-04-18T01:19:51.126Z,11.13
2023-04-18T01:25:39.147Z,11.95
2023-04-18T01:31:34.059Z,10.70
2023-04-18T01:37:23.936Z,11.63
2023-04-18T01:43:12.767Z,11.70
2023-04-18T01:49:08.058Z,12.73
2023-04-18T01:54:54.826Z,10.38
2023-04-18T02:00:41.555Z,11.32
2023-04-18T02:06:28.606Z,11.98
2023-04-18T02:12:15.345Z,12.25
2023-04-18T02:18:03.675Z,11.00
2023-04-18T02:23:51.077Z,13.00
2023-04-18T02:29:38.230Z,12.13
2023-04-18T02:35:35.396Z,11.43
2023-04-18T02:41:22.457Z,11.80
2023-04-18T02:47:16.337Z,10.82
2023-04-18T02:53:06.042Z,11.48
2023-04-18T02:59:07.446Z,9.68
2023-04-18T03:05:12.454Z,10.43
2023-04-18T03:10:59.481Z,11.32
2023-04-18T03:16:49.072Z,15.30
2023-04-18T03:22:40.409Z,11.27
2023-04-18T03:28:27.354Z,12.25
2023-04-18T03:34:14.439Z,13.57
2023-04-18T03:40:01.626Z,10.63
2023-04-18T03:45:50.565Z,10.85
2023-04-18T03:51:44.343Z,10.50
2023-04-18T03:57:31.364Z,10.43
2023-04-18T04:03:19.271Z,12.15
2023-04-18T04:09:07.182Z,10.73
2023-04-18T04:14:54.911Z,10.43
2023-04-18T04:20:42.143Z,9.52
2023-04-18T04:26:35.838Z,10.47
2023-04-18T04:32:39.022Z,9.75
2023-04-18T04:38:25.907Z,9.73
2023-04-18T04:44:26.091Z,11.38
2023-04-18T04:50:15.823Z,9.75
2023-04-18T04:56:04.771Z,11.02
2023-04-18T05:01:53.353Z,10.38
2023-04-18T05:07:40.537Z,10.40
2023-04-18T05:13:27.341Z,10.90
2023-04-18T05:19:14.626Z,10.57
2023-04-18T05:25:02.482Z,9.57
2023-04-18T05:30:49.561Z,8.88
2023-04-18T05:36:38.290Z,9.52
2023-04-18T05:42:25.526Z,10.25
2023-04-18T05:48:15.542Z,10.75
2023-04-18T05:54:03.083Z,11.48
2023-04-18T05:59:50.119Z,10.68
2023-04-18T06:05:37.128Z,12.10
2023-04-18T06:11:24.367Z,10.55
2023-04-18T06:17:15.011Z,10.15
2023-04-18T06:23:04.893Z,10.35
2023-04-18T06:29:38.400Z,12.27
2023-04-18T06:35:33.669Z,9.75
2023-04-18T06:41:20.670Z,11.50
2023-04-18T06:47:07.779Z,10.43
2023-04-18T06:52:57.257Z,11.18
2023-04-18T06:59:30.156Z,11.25
2023-04-18T07:05:19.786Z,10.38
2023-04-18T07:11:18.675Z,9.77
2023-04-18T07:17:18.225Z,11.15
2023-04-18T07:23:10.784Z,10.18
2023-04-18T07:28:58.038Z,9.10
2023-04-18T07:34:45.123Z,9.43
2023-04-18T07:40:32.527Z,10.00
2023-04-18T07:46:19.380Z,11.23
2023-04-18T07:52:14.665Z,9.02
2023-04-18T07:58:01.353Z,8.55
2023-04-18T08:03:48.550Z,9.00
2023-04-18T08:09:35.576Z,9.38
2023-04-18T08:15:27.752Z,8.23
2023-04-18T08:21:17.053Z,9.13
2023-04-18T08:27:04.043Z,8.73
2023-04-18T08:32:51.345Z,7.47
2023-04-18T08:38:38.256Z,7.03
2023-04-18T08:44:27.821Z,8.00
2023-04-18T08:50:14.591Z,6.70
2023-04-18T08:56:05.928Z,7.38
2023-04-18T09:01:59.641Z,6.65
2023-04-18T09:07:48.033Z,7.28
2023-04-18T09:13:39.799Z,4.97
2023-04-18T09:19:26.696Z,4.53
2023-04-18T09:25:29.228Z,5.85
2023-04-18T09:37:15.675Z,6.40
2023-04-18T09:43:37.392Z,5.55
2023-04-18T10:10:51.867Z,5.35
2023-04-18T10:24:55.787Z,4.03
2023-04-18T10:30:50.052Z,5.03
2023-04-18T10:44:49.289Z,5.75
2023-04-18T10:51:29.155Z,4.05
2023-04-18T10:57:18.637Z,4.57
2023-04-18T11:03:06.242Z,5.18
2023-04-18T11:09:38.330Z,4.97
2023-04-18T11:15:50.759Z,4.60
2023-04-18T11:21:41.274Z,4.15
2023-04-18T11:27:29.848Z,4.45
2023-04-18T11:42:18.562Z,3.35
2023-04-18T11:48:39.179Z,3.35
2023-04-18T11:54:45.598Z,3.08
2023-04-18T12:00:44.806Z,3.13
2023-04-18T12:07:26.718Z,3.03
2023-04-18T12:20:09.197Z,3.60
2023-04-18T12:26:04.649Z,4.05
2023-04-18T12:31:54.075Z,3.42
2023-04-18T12:37:51.445Z,3.67
2023-04-18T12:43:45.077Z,3.75
2023-04-18T12:49:47.535Z,4.10
2023-04-18T12:55:35.880Z,3.53
2023-04-18T13:02:00.765Z,4.15
2023-04-18T13:08:44.484Z,3.22
2023-04-18T13:14:47.773Z,2.65
2023-04-18T13:20:38.042Z,2.90
2023-04-18T13:26:39.655Z,2.97
2023-04-18T13:32:44.166Z,2.83
2023-04-18T13:38:31.207Z,2.78
2023-04-18T13:44:25.203Z,2.33
2023-04-18T13:50:13.789Z,2.45
2023-04-18T13:56:05.498Z,3.80
2023-04-18T14:01:53.713Z,2.83
2023-04-18T14:07:54.216Z,2.80
2023-04-18T14:13:41.255Z,2.50
2023-04-18T14:19:28.153Z,2.53
2023-04-18T14:25:17.166Z,2.33
2023-04-18T14:31:06.765Z,2.33
2023-04-18T14:36:53.885Z,2.38
2023-04-18T14:42:40.985Z,1.77
2023-04-18T14:48:30.109Z,2.72
2023-04-18T14:54:17.156Z,2.65
2023-04-18T15:00:07.540Z,3.40
2023-04-18T15:05:57.565Z,2.78
2023-04-18T15:11:44.764Z,2.92
2023-04-18T15:17:34.240Z,2.72
2023-04-18T15:23:21.780Z,2.60
2023-04-18T15:29:08.892Z,2.92
2023-04-18T15:34:56.119Z,2.78
2023-04-18T15:40:43.720Z,3.42
2023-04-18T15:46:30.731Z,3.72
2023-04-18T15:52:19.602Z,3.78
2023-04-18T15:58:07.758Z,5.03
2023-04-18T16:03:54.859Z,4.78
2023-04-18T16:09:42.010Z,4.88
2023-04-18T16:15:33.256Z,5.97
2023-04-18T16:21:20.337Z,5.20
2023-04-18T16:27:10.463Z,6.47
2023-04-18T16:32:57.712Z,6.72
2023-04-18T16:38:44.823Z,7.13
2023-04-18T16:44:33.219Z,7.10
2023-04-18T16:50:30.369Z,6.88
2023-04-18T16:56:24.366Z,7.15
2023-04-18T17:02:12.011Z,7.60
2023-04-18T17:08:20.141Z,6.85
2023-04-18T17:14:57.069Z,6.90
2023-04-18T17:20:44.222Z,7.43
2023-04-18T17:26:44.854Z,6.00
2023-04-18T17:32:52.955Z,8.02
2023-04-18T17:38:42.570Z,7.55
2023-04-18T17:44:29.650Z,7.47
2023-04-18T17:50:22.705Z,7.50
2023-04-18T17:56:29.497Z,6.45
2023-04-18T18:02:28.501Z,6.55
2023-04-18T18:08:16.102Z,6.90
2023-04-18T18:14:09.973Z,6.32
2023-04-18T18:19:57.033Z,6.60
2023-04-18T18:25:44.096Z,5.88
2023-04-18T18:31:49.877Z,4.88
2023-04-18T18:37:39.067Z,5.25
2023-04-18T18:43:27.981Z,5.65
2023-04-18T19:28:20.236Z,5.95
2023-04-18T19:34:36.415Z,6.28
2023-04-18T19:41:03.842Z,6.10
2023-04-18T19:54:00.334Z,5.82
2023-04-18T19:59:50.028Z,6.15
2023-04-18T20:06:40.480Z,6.53
2023-04-18T20:13:51.459Z,6.10
2023-04-18T20:19:47.393Z,5.55
2023-04-18T20:53:57.805Z,6.43
2023-04-18T21:00:07.476Z,6.55
2023-04-18T21:06:36.139Z,6.32
2023-04-18T21:12:23.316Z,6.53
2023-04-18T21:18:10.646Z,6.55
2023-04-18T21:23:57.603Z,6.05
2023-04-18T21:44:55.241Z,6.57
2023-04-18T21:50:43.073Z,6.38
2023-04-18T21:56:30.261Z,6.97
2023-04-18T22:02:20.440Z,6.68
2023-04-18T22:15:43.710Z,6.95
2023-04-18T22:21:38.617Z,8.05
2023-04-18T22:27:49.181Z,7.97
2023-04-18T22:33:36.543Z,8.13
2023-04-18T22:39:25.099Z,7.68
2023-04-18T22:45:13.745Z,8.85
2023-04-18T22:51:02.003Z,7.45
2023-04-18T22:56:50.399Z,8.40
2023-04-18T23:02:38.486Z,8.45
2023-04-18T23:08:25.539Z,8.52
2023-04-18T23:14:12.656Z,8.20
2023-04-18T23:19:59.516Z,8.55
2023-04-18T23:25:53.352Z,8.93
2023-04-18T23:31:43.699Z,8.23
2023-04-18T23:37:34.347Z,8.57
2023-04-18T23:43:21.472Z,9.20
2023-04-18T23:49:08.702Z,9.40
2023-04-18T23:54:58.842Z,10.05
